Time;durP1;ratioP1;P1;durP2;ratioP2;P2;SDS_P1;SDS_P2;PMS_P1;PMS_P2;Temp;Humidity;BMP_temperature;BMP_pressure;BME280_temperature;BME280_humidity;BME280_pressure;Samples;Min_cycle;Max_cycle;Signal;HPM_P1;HPM_P2
2023/12/26 00:01:34;;;;;;;9.88;1.50;;;;;;;-146.27;97.05;32172.50;5068547;28;20099;-73
2023/12/26 00:03:59;;;;;;;15.98;2.40;;;;;;;-146.27;97.86;32120.94;5069760;28;20170;-72
2023/12/26 00:06:24;;;;;;;8.75;1.98;;;;;;;-146.27;97.56;32105.06;5071444;28;20438;-72
2023/12/26 00:08:50;;;;;;;18.38;3.28;;;;;;;-146.27;98.07;32099.09;5066454;28;20552;-72
2023/12/26 00:11:15;;;;;;;15.23;2.95;;;;;;;-146.27;96.82;32055.47;5064737;28;20032;-73
2023/12/26 00:13:41;;;;;;;21.38;3.08;;;;;;;-146.27;96.95;32025.72;5069265;28;20071;-71
2023/12/26 00:16:07;;;;;;;14.63;1.90;;;;;;;-146.27;97.28;32170.53;5067957;28;20025;-72
2023/12/26 00:18:32;;;;;;;31.23;3.38;;;;;;;-146.27;97.50;32140.75;5068120;28;20051;-71
2023/12/26 00:20:57;;;;;;;20.33;2.90;;;;;;;-146.27;97.86;32164.56;5067871;28;20029;-72
2023/12/26 00:23:23;;;;;;;31.00;3.30;;;;;;;-146.27;97.92;32152.66;5070743;28;20028;-73
2023/12/26 00:25:48;;;;;;;23.35;2.90;;;;;;;-146.27;97.94;32122.91;5074023;28;20133;-71
2023/12/26 00:28:16;;;;;;;12.30;2.90;;;;;;;-146.27;98.30;32196.31;5070651;28;20024;-72
2023/12/26 00:30:41;;;;;;;14.98;2.65;;;;;;;-146.27;97.87;32138.78;5069267;28;20129;-72
2023/12/26 00:33:06;;;;;;;16.70;2.17;;;;;;;-146.27;97.70;32212.16;5069364;28;20119;-73
2023/12/26 00:35:32;;;;;;;22.48;3.17;;;;;;;-146.27;97.68;32069.34;5080271;28;20024;-72
2023/12/26 00:37:58;;;;;;;21.63;3.15;;;;;;;-146.27;97.62;32140.75;5061138;28;20024;-72
2023/12/26 00:40:24;;;;;;;17.83;2.60;;;;;;;-146.27;96.77;32116.97;5065972;28;20506;-72
2023/12/26 00:42:49;;;;;;;21.25;2.38;;;;;;;-146.27;97.74;32184.41;5067811;28;20244;-72
2023/12/26 00:45:15;;;;;;;22.58;2.45;;;;;;;-146.27;98.04;32069.34;5069150;28;20024;-72
2023/12/26 00:47:40;;;;;;;15.35;2.15;;;;;;;-146.27;97.54;32128.88;5065540;28;20432;-71
2023/12/26 00:50:11;;;;;;;24.10;2.80;;;;;;;-146.27;97.78;32132.84;5065396;28;20024;-72
2023/12/26 00:52:37;;;;;;;18.10;3.22;;;;;;;-146.27;97.79;32148.69;5062817;28;20109;-72
2023/12/26 00:55:02;;;;;;;17.63;2.50;;;;;;;-146.27;97.21;32069.34;5075517;28;20515;-72
2023/12/26 00:57:28;;;;;;;11.25;2.20;;;;;;;-146.27;97.15;32093.16;5072340;28;20086;-71
2023/12/26 00:59:53;;;;;;;18.73;2.45;;;;;;;-146.27;96.64;32081.25;5070533;28;20020;-72
2023/12/26 01:02:21;;;;;;;19.63;2.67;;;;;;;-146.27;96.95;32120.94;5066879;28;20078;-71
2023/12/26 01:04:46;;;;;;;23.90;2.60;;;;;;;-146.27;97.11;32128.88;5066644;28;20023;-72
2023/12/26 01:07:12;;;;;;;23.95;2.85;;;;;;;-146.27;96.68;32071.34;5069996;28;20481;-71
2023/12/26 01:09:37;;;;;;;18.38;3.03;;;;;;;-146.27;96.81;32057.47;5069884;28;20085;-72
2023/12/26 01:12:03;;;;;;;12.27;2.22;;;;;;;-146.27;97.03;32113.00;5055428;28;20115;-71
2023/12/26 01:14:28;;;;;;;18.55;2.53;;;;;;;-146.27;97.11;32156.63;5057614;28;20027;-72
2023/12/26 01:16:54;;;;;;;14.43;2.63;;;;;;;-146.27;96.87;32164.56;5060483;28;20483;-71
2023/12/26 01:19:19;;;;;;;20.33;2.30;;;;;;;-146.27;96.16;32077.28;5058663;28;20464;-72
2023/12/26 01:21:45;;;;;;;20.45;3.13;;;;;;;-146.27;96.54;32124.91;5067793;28;20020;-71
2023/12/26 01:24:10;;;;;;;16.35;2.38;;;;;;;-146.27;95.96;32059.44;5069535;28;20028;-72
2023/12/26 01:26:35;;;;;;;11.57;1.88;;;;;;;-146.27;96.06;32144.72;5067042;28;20039;-72
2023/12/26 01:29:01;;;;;;;15.55;1.75;;;;;;;-146.27;95.09;32091.19;5064399;28;20120;-71
2023/12/26 01:31:27;;;;;;;9.88;1.52;;;;;;;-146.27;95.23;32093.16;5062712;28;20047;-72
2023/12/26 01:33:53;;;;;;;18.13;2.10;;;;;;;-146.27;95.42;32081.25;5069123;28;20024;-72
2023/12/26 01:36:19;;;;;;;20.20;1.98;;;;;;;-146.27;95.01;32061.44;5079048;28;20024;-71
2023/12/26 01:38:44;;;;;;;13.95;2.03;;;;;;;-146.27;94.62;32053.50;5053979;28;20013;-71
2023/12/26 01:41:10;;;;;;;16.27;2.83;;;;;;;-146.27;94.95;32081.25;5066242;28;20116;-70
2023/12/26 01:43:35;;;;;;;12.95;2.17;;;;;;;-146.27;94.06;32061.44;5064110;28;20035;-72
2023/12/26 01:46:03;;;;;;;14.85;2.55;;;;;;;-146.27;94.33;32041.59;5058494;28;20028;-72
2023/12/26 01:48:29;;;;;;;17.40;2.13;;;;;;;-146.27;93.63;32003.91;5065744;28;20128;-72
2023/12/26 01:50:56;;;;;;;16.10;2.10;;;;;;;-146.27;93.67;32051.50;5067025;28;20392;-73
2023/12/26 01:53:21;;;;;;;11.52;1.38;;;;;;;-146.27;93.54;32049.53;5054323;28;20099;-72
2023/12/26 01:55:47;;;;;;;11.88;2.65;;;;;;;-146.27;94.05;32138.78;5077600;28;20131;-72
2023/12/26 01:58:12;;;;;;;8.50;1.45;;;;;;;-146.27;93.74;32099.09;5069607;28;20013;-73
2023/12/26 02:00:39;;;;;;;11.13;2.00;;;;;;;-146.27;93.63;32081.25;5067764;28;20036;-72
2023/12/26 02:03:05;;;;;;;12.02;1.52;;;;;;;-146.27;93.18;32041.59;5067413;28;20020;-72
2023/12/26 02:05:30;;;;;;;9.45;1.27;;;;;;;-146.27;92.12;31994.00;5063339;28;20584;-72
2023/12/26 02:07:56;;;;;;;14.70;1.42;;;;;;;-146.27;92.09;32029.69;5058246;28;20140;-72
2023/12/26 02:10:21;;;;;;;11.25;1.50;;;;;;;-146.27;92.01;32027.72;5070144;28;20017;-72
2023/12/26 02:12:47;;;;;;;11.10;1.38;;;;;;;-146.27;92.29;32162.59;5069903;28;20029;-72
2023/12/26 02:15:14;;;;;;;8.85;1.38;;;;;;;-146.27;91.85;32128.88;5073057;28;20047;-72
2023/12/26 02:17:39;;;;;;;8.32;1.38;;;;;;;-146.27;91.78;32132.84;5064637;28;20062;-72
2023/12/26 02:20:05;;;;;;;15.60;1.90;;;;;;;-146.27;91.19;32023.75;5069452;28;20484;-71
2023/12/26 02:22:31;;;;;;;11.40;1.58;;;;;;;-146.27;91.45;32113.00;5068427;28;20028;-72
2023/12/26 02:24:57;;;;;;;13.95;1.92;;;;;;;-146.27;91.26;32093.16;5068174;28;20441;-72
2023/12/26 02:27:29;;;;;;;6.15;1.38;;;;;;;-146.27;90.85;32113.00;5075582;28;20033;-72
2023/12/26 02:29:56;;;;;;;6.25;1.20;;;;;;;-146.27;92.04;32220.09;5066266;28;20060;-73
2023/12/26 02:32:23;;;;;;;16.35;2.33;;;;;;;-146.27;90.84;32168.53;5065816;28;20046;-72
2023/12/26 02:34:54;;;;;;;20.20;1.65;;;;;;;-146.27;90.81;32194.31;5067829;28;20100;-72
2023/12/26 02:37:20;;;;;;;13.73;1.65;;;;;;;-146.27;91.01;32255.81;5075669;28;20118;-70
2023/12/26 02:39:46;;;;;;;8.13;1.33;;;;;;;-146.27;90.81;32212.16;5067914;28;20042;-72
2023/12/26 02:42:12;;;;;;;11.40;1.75;;;;;;;-146.27;90.58;32251.84;5064456;28;20102;-72
2023/12/26 02:44:38;;;;;;;14.27;1.40;;;;;;;-146.27;90.17;32271.69;5076301;28;20020;-72
2023/12/26 02:47:03;;;;;;;10.90;2.03;;;;;;;-146.27;90.36;32289.53;5074926;28;20043;-72
2023/12/26 02:49:29;;;;;;;20.80;2.00;;;;;;;-146.27;89.09;32323.25;5069225;28;20032;-72
2023/12/26 02:51:54;;;;;;;7.45;2.13;;;;;;;-146.27;88.02;32374.81;5062352;28;20024;-71
2023/12/26 02:54:19;;;;;;;17.13;2.05;;;;;;;-146.27;87.54;32353.00;5062548;28;20107;-72
2023/12/26 02:56:46;;;;;;;9.02;1.50;;;;;;;-146.27;86.62;32283.59;5065456;28;20062;-71
2023/12/26 02:59:11;;;;;;;8.52;1.42;;;;;;;-146.27;85.76;32271.69;5054798;28;20021;-71
2023/12/26 03:01:37;;;;;;;6.50;1.60;;;;;;;-146.27;85.01;32303.41;5081738;28;20035;-71
2023/12/26 03:04:02;;;;;;;5.35;1.25;;;;;;;-146.27;83.65;32366.91;5055846;28;20037;-71
2023/12/26 03:06:28;;;;;;;14.15;2.15;;;;;;;-146.27;82.97;32263.75;5061560;28;20357;-71
2023/12/26 03:08:53;;;;;;;13.70;1.30;;;;;;;-146.27;82.27;32378.78;5064773;28;20484;-71
2023/12/26 03:11:19;;;;;;;8.32;1.58;;;;;;;-146.27;81.95;32426.41;5072211;28;20029;-72
2023/12/26 03:13:44;;;;;;;8.43;1.48;;;;;;;-146.27;81.52;32374.81;5072135;28;20032;-71
2023/12/26 03:16:09;;;;;;;12.57;2.13;;;;;;;-146.27;81.59;32462.09;5076529;28;20352;-72
2023/12/26 03:18:35;;;;;;;9.32;2.17;;;;;;;-146.27;81.54;32414.50;5071034;28;20439;-72
2023/12/26 03:21:00;;;;;;;7.93;1.00;;;;;;;-146.27;81.50;32408.56;5067470;28;20036;-71
2023/12/26 03:23:25;;;;;;;12.02;1.25;;;;;;;-146.27;81.95;32339.13;5069675;28;20508;-72
2023/12/26 03:25:51;;;;;;;11.57;1.23;;;;;;;-146.27;82.75;32442.28;5071331;28;20082;-71
2023/12/26 03:28:16;;;;;;;7.10;1.30;;;;;;;-146.27;83.12;32323.25;5070391;28;20575;-71
2023/12/26 03:30:42;;;;;;;12.70;1.85;;;;;;;-146.27;83.17;32339.13;5064046;28;20100;-73
2023/12/26 03:33:07;;;;;;;12.25;1.70;;;;;;;-146.27;84.37;32450.22;5072066;28;20039;-71
2023/12/26 03:35:32;;;;;;;7.70;1.35;;;;;;;-146.27;84.91;32477.97;5072854;28;20500;-72
2023/12/26 03:37:58;;;;;;;7.80;1.67;;;;;;;-146.27;84.72;32495.84;5067582;28;20267;-72
2023/12/26 03:40:23;;;;;;;13.50;1.50;;;;;;;-146.27;84.16;32452.19;5066964;28;20028;-71
2023/12/26 03:42:49;;;;;;;19.95;1.42;;;;;;;-146.27;83.04;32410.53;5065343;28;20051;-72
2023/12/26 03:45:14;;;;;;;18.48;1.60;;;;;;;-146.27;82.44;32400.63;5073440;28;20166;-72
2023/12/26 03:47:39;;;;;;;11.95;1.92;;;;;;;-146.27;81.92;32497.81;5072898;28;20020;-72
2023/12/26 03:50:07;;;;;;;11.48;1.27;;;;;;;-146.27;81.68;32491.88;5067502;28;20029;-71
2023/12/26 03:52:34;;;;;;;7.05;1.33;;;;;;;-146.27;80.02;32513.69;5072964;28;20055;-71
2023/12/26 03:54:59;;;;;;;9.60;1.38;;;;;;;-146.27;79.57;32513.69;5068090;28;20045;-71
2023/12/26 03:57:24;;;;;;;12.02;1.48;;;;;;;-146.27;79.44;32472.03;5057627;28;20410;-72
2023/12/26 03:59:50;;;;;;;5.38;1.48;;;;;;;-146.27;79.61;32535.50;5057782;28;20567;-72
2023/12/26 04:02:15;;;;;;;12.48;1.20;;;;;;;-146.27;78.62;32414.50;5069680;28;20031;-72
2023/12/26 04:04:40;;;;;;;7.80;1.48;;;;;;;-146.27;79.30;32537.50;5070164;28;20472;-74
2023/12/26 04:07:06;;;;;;;9.27;1.33;;;;;;;-146.27;79.81;32557.31;5053060;28;20025;-71
2023/12/26 04:09:31;;;;;;;6.32;1.20;;;;;;;-146.27;79.40;32505.75;5067527;28;20078;-71
2023/12/26 04:11:57;;;;;;;5.15;1.05;;;;;;;-146.27;78.12;32585.09;5071594;28;20029;-71
2023/12/26 04:14:22;;;;;;;8.93;1.58;;;;;;;-146.27;77.75;32458.13;5056705;28;20032;-72
2023/12/26 04:16:47;;;;;;;10.70;1.73;;;;;;;-146.27;77.82;32636.69;5068104;28;20102;-71
2023/12/26 04:19:13;;;;;;;9.63;1.50;;;;;;;-146.27;78.07;32593.03;5070039;28;20139;-70
2023/12/26 04:21:38;;;;;;;8.20;1.15;;;;;;;-146.27;78.37;32614.84;5077110;28;20468;-73
2023/12/26 04:24:04;;;;;;;13.13;2.15;;;;;;;-146.27;77.90;32614.84;5070951;28;20078;-71
2023/12/26 04:26:29;;;;;;;10.93;2.00;;;;;;;-146.27;77.67;32585.09;5071066;28;20046;-71
2023/12/26 04:28:55;;;;;;;12.50;1.35;;;;;;;-146.27;77.34;32606.91;5068922;28;20021;-72
2023/12/26 04:31:20;;;;;;;15.40;1.70;;;;;;;-146.27;76.39;32688.25;5069979;28;20058;-71
2023/12/26 04:33:47;;;;;;;9.57;1.55;;;;;;;-146.27;75.85;32660.47;5067962;28;20129;-70
2023/12/26 04:36:12;;;;;;;7.68;1.25;;;;;;;-146.27;74.64;32636.69;5067521;28;20056;-72
2023/12/26 04:38:37;;;;;;;10.43;1.52;;;;;;;-146.27;74.56;32680.31;5068711;28;20465;-72
2023/12/26 04:41:08;;;;;;;8.18;1.73;;;;;;;-146.27;74.72;32676.34;5073964;28;20031;-71
2023/12/26 04:43:34;;;;;;;12.68;1.42;;;;;;;-146.27;75.16;32696.19;5066034;28;20025;-72
2023/12/26 04:45:59;;;;;;;6.20;1.20;;;;;;;-146.27;75.25;32696.19;5061812;28;20055;-72
2023/12/26 04:48:24;;;;;;;18.60;1.83;;;;;;;-146.27;74.95;32632.72;5064106;28;20032;-72
2023/12/26 04:50:50;;;;;;;12.70;1.48;;;;;;;-146.27;74.81;32696.19;5075292;28;20073;-72
2023/12/26 04:53:15;;;;;;;11.70;1.63;;;;;;;-146.27;74.14;32735.88;5070414;28;20639;-72
2023/12/26 04:55:40;;;;;;;7.72;1.45;;;;;;;-146.27;73.27;32692.22;5073050;28;20155;-72
2023/12/26 04:58:06;;;;;;;9.90;1.13;;;;;;;-146.27;73.23;32747.78;5068157;28;20024;-72
2023/12/26 05:00:31;;;;;;;8.25;1.00;;;;;;;-146.27;72.70;32664.44;5069462;28;20021;-72
2023/12/26 05:02:57;;;;;;;7.53;1.38;;;;;;;-146.27;73.30;32769.59;5067491;28;20032;-72
2023/12/26 05:05:22;;;;;;;13.68;1.92;;;;;;;-146.27;73.42;32692.22;5062101;28;20063;-71
2023/12/26 05:07:47;;;;;;;9.75;1.25;;;;;;;-146.27;73.79;32731.91;5069354;28;20032;-72
2023/12/26 05:10:13;;;;;;;8.05;1.40;;;;;;;-146.27;74.31;32710.06;5073408;28;20031;-72
2023/12/26 05:12:38;;;;;;;5.45;1.40;;;;;;;-146.27;74.22;32712.06;5066910;28;20036;-72
2023/12/26 05:15:04;;;;;;;11.27;1.65;;;;;;;-146.27;74.25;32644.63;5061881;28;20025;-71
2023/12/26 05:17:30;;;;;;;11.10;1.55;;;;;;;-146.27;75.08;32759.66;5065841;28;20036;-72
2023/12/26 05:19:55;;;;;;;10.63;1.05;;;;;;;-146.27;74.66;32694.22;5067690;28;20127;-72
2023/12/26 05:22:20;;;;;;;10.63;1.63;;;;;;;-146.27;74.30;32775.53;5069779;28;20024;-71
2023/12/26 05:24:46;;;;;;;12.48;1.40;;;;;;;-146.27;74.23;32735.88;5079993;28;20026;-72
2023/12/26 05:27:11;;;;;;;12.95;1.83;;;;;;;-146.27;73.24;32660.47;5068525;28;20028;-72
2023/12/26 05:29:37;;;;;;;9.18;1.20;;;;;;;-146.27;73.70;32886.63;5070341;28;20029;-72
2023/12/26 05:32:03;;;;;;;9.18;1.30;;;;;;;-146.27;72.98;32718.00;5067028;28;20130;-72
2023/12/26 05:34:28;;;;;;;20.98;1.92;;;;;;;-146.27;72.61;32771.56;5067100;28;20025;-72
2023/12/26 05:36:53;;;;;;;11.65;2.05;;;;;;;-146.27;72.16;32825.13;5074022;28;20472;-72
2023/12/26 05:39:19;;;;;;;13.15;1.50;;;;;;;-146.27;72.35;32733.88;5059423;28;20029;-72
2023/12/26 05:41:44;;;;;;;9.23;1.20;;;;;;;-146.27;71.70;32769.59;5067573;28;20028;-72
2023/12/26 05:44:10;;;;;;;10.82;1.55;;;;;;;-146.27;71.66;32727.94;5072171;28;20111;-72
2023/12/26 05:46:36;;;;;;;14.07;1.42;;;;;;;-146.27;72.05;32751.75;5074185;28;20023;-72
2023/12/26 05:49:02;;;;;;;12.27;1.45;;;;;;;-146.27;72.68;32795.38;5070080;28;20064;-71
2023/12/26 05:51:27;;;;;;;13.73;1.85;;;;;;;-146.27;72.35;32783.47;5067843;28;20060;-72
2023/12/26 05:53:52;;;;;;;13.23;1.90;;;;;;;-146.27;72.97;32712.06;5070397;28;20311;-72
2023/12/26 05:56:19;;;;;;;14.27;1.73;;;;;;;-146.27;72.93;32765.63;5073668;28;20044;-72
2023/12/26 05:58:45;;;;;;;10.02;1.10;;;;;;;-146.27;72.85;32727.94;5068797;28;20502;-73
2023/12/26 06:01:10;;;;;;;20.45;2.55;;;;;;;-146.27;73.21;32789.44;5069792;28;20025;-72
2023/12/26 06:03:37;;;;;;;10.52;1.17;;;;;;;-146.27;73.19;32801.34;5062462;28;20031;-71
2023/12/26 06:06:03;;;;;;;13.23;1.20;;;;;;;-146.27;73.62;32837.03;5076076;28;20369;-71
2023/12/26 06:08:28;;;;;;;19.25;1.73;;;;;;;-146.27;73.23;32733.88;5059276;28;20033;-72
2023/12/26 06:10:54;;;;;;;12.85;1.67;;;;;;;-146.27;73.29;32759.66;5062522;28;20112;-72
2023/12/26 06:13:19;;;;;;;10.82;2.28;;;;;;;-146.27;73.37;32739.84;5067523;28;20025;-72
2023/12/26 06:15:45;;;;;;;9.05;1.33;;;;;;;-146.27;72.93;32698.19;5076553;28;20039;-72
2023/12/26 06:18:10;;;;;;;13.10;1.40;;;;;;;-146.27;72.39;32684.28;5060309;28;20024;-71
2023/12/26 06:20:36;;;;;;;13.57;1.70;;;;;;;-146.27;72.85;32767.59;5067224;28;20038;-72
2023/12/26 06:23:02;;;;;;;8.45;1.40;;;;;;;-146.27;73.40;32787.44;5069219;28;20483;-72
2023/12/26 06:25:28;;;;;;;10.00;1.33;;;;;;;-146.27;73.34;32763.63;5072882;28;20039;-72
2023/12/26 06:27:53;;;;;;;15.25;1.33;;;;;;;-146.27;73.21;32843.00;5068537;28;20036;-71
2023/12/26 06:30:19;;;;;;;11.80;1.92;;;;;;;-146.27;73.18;32791.41;5066227;28;20551;-70
2023/12/26 06:32:44;;;;;;;9.23;1.08;;;;;;;-146.27;72.97;32793.41;5068147;28;20023;-72
2023/12/26 06:35:10;;;;;;;11.77;1.50;;;;;;;-146.27;72.41;32747.78;5064626;28;20028;-71
2023/12/26 06:37:35;;;;;;;17.98;2.00;;;;;;;-146.27;72.82;32759.66;5064007;28;20032;-72
2023/12/26 06:40:00;;;;;;;13.10;2.00;;;;;;;-146.27;72.43;32801.34;5068827;28;20039;-72
2023/12/26 06:42:26;;;;;;;10.40;1.58;;;;;;;-146.27;73.40;32858.88;5066083;28;20074;-72
2023/12/26 06:44:51;;;;;;;7.50;1.42;;;;;;;-146.27;72.46;32809.28;5066563;28;20029;-72
2023/12/26 06:47:17;;;;;;;11.27;1.77;;;;;;;-146.27;72.46;32759.66;5069116;28;20197;-72
2023/12/26 06:49:46;;;;;;;11.32;1.83;;;;;;;-146.27;72.61;32777.53;5064096;28;20104;-71
2023/12/26 06:52:13;;;;;;;11.55;1.45;;;;;;;-146.27;72.74;32791.41;5066528;28;20091;-72
2023/12/26 06:54:38;;;;;;;12.60;1.60;;;;;;;-146.27;72.98;32892.59;5065372;28;20071;-72
2023/12/26 06:57:07;;;;;;;12.68;1.20;;;;;;;-146.27;72.63;32811.25;5061760;28;20597;-73
2023/12/26 06:59:33;;;;;;;13.70;1.30;;;;;;;-146.27;72.96;32811.25;5060604;28;20499;-73
2023/12/26 07:01:58;;;;;;;20.45;2.58;;;;;;;-146.27;72.52;32735.88;5069297;28;20052;-72
2023/12/26 07:04:24;;;;;;;13.65;1.48;;;;;;;-146.27;72.86;32801.34;5067759;28;20446;-72
2023/12/26 07:06:49;;;;;;;6.78;1.10;;;;;;;-146.27;73.24;32825.13;5069453;28;20021;-72
2023/12/26 07:09:14;;;;;;;11.75;1.38;;;;;;;-146.27;73.54;32789.44;5064093;28;20468;-73
2023/12/26 07:11:40;;;;;;;8.95;1.27;;;;;;;-146.27;73.49;32811.25;5064094;28;20115;-72
2023/12/26 07:14:06;;;;;;;15.65;2.03;;;;;;;-146.27;74.13;32884.66;5059375;28;20104;-72
2023/12/26 07:16:33;;;;;;;8.75;1.55;;;;;;;-146.27;73.40;32922.34;5066846;28;20016;-72
2023/12/26 07:18:58;;;;;;;15.93;1.63;;;;;;;-146.27;73.82;32922.34;5073667;28;20039;-72
2023/12/26 07:21:24;;;;;;;15.32;1.50;;;;;;;-146.27;72.75;32870.78;5074163;28;20144;-74
2023/12/26 07:23:49;;;;;;;8.68;1.38;;;;;;;-146.27;72.57;32843.00;5059382;28;20023;-72
2023/12/26 07:26:15;;;;;;;5.78;0.98;;;;;;;-146.27;72.34;32795.38;5067598;28;20557;-72
2023/12/26 07:28:40;;;;;;;4.72;0.88;;;;;;;-146.27;72.78;32837.03;5058088;28;20089;-72
2023/12/26 07:31:06;;;;;;;12.60;1.50;;;;;;;-146.27;73.50;32870.78;5074062;28;20534;-72
2023/12/26 07:33:31;;;;;;;6.32;1.25;;;;;;;-146.27;73.95;32843.00;5071654;28;20027;-73
2023/12/26 07:35:57;;;;;;;9.40;1.30;;;;;;;-146.27;73.64;32775.53;5063386;28;20037;-73
2023/12/26 07:38:26;;;;;;;11.73;2.03;;;;;;;-146.27;74.39;32787.44;5058497;28;20074;-72
2023/12/26 07:40:51;;;;;;;8.63;1.38;;;;;;;-146.27;73.80;32743.81;5059635;28;20041;-72
2023/12/26 07:43:17;;;;;;;10.57;1.40;;;;;;;-146.27;74.03;32751.75;5061981;28;20028;-72
2023/12/26 07:45:43;;;;;;;7.53;1.33;;;;;;;-146.27;74.74;32787.44;5065631;28;20377;-72
2023/12/26 07:48:08;;;;;;;7.72;1.70;;;;;;;-146.27;74.72;32787.44;5081081;28;20040;-72
2023/12/26 07:50:34;;;;;;;9.13;1.80;;;;;;;-146.27;74.60;32741.81;5068847;28;20029;-73
2023/12/26 07:52:59;;;;;;;11.05;2.25;;;;;;;-146.27;74.83;32807.28;5073338;28;20028;-72
2023/12/26 07:55:24;;;;;;;10.50;1.42;;;;;;;-146.27;74.49;32755.69;5070539;28;20051;-72
2023/12/26 07:57:51;;;;;;;14.27;1.80;;;;;;;-146.27;74.19;32765.63;5070195;28;20078;-72
2023/12/26 08:00:16;;;;;;;10.60;1.40;;;;;;;-146.27;74.47;32799.34;5072048;28;20033;-72
2023/12/26 08:02:42;;;;;;;15.23;2.03;;;;;;;-146.27;74.49;32757.69;5066453;28;20044;-72
2023/12/26 08:05:08;;;;;;;11.23;1.50;;;;;;;-146.27;74.64;32791.41;5076938;28;20039;-73
2023/12/26 08:07:33;;;;;;;10.48;1.38;;;;;;;-146.27;74.96;32852.91;5068651;28;20075;-73
2023/12/26 08:09:59;;;;;;;6.50;1.88;;;;;;;-146.27;75.37;32835.06;5075476;28;20028;-72
2023/12/26 08:12:24;;;;;;;14.70;1.60;;;;;;;-146.27;75.02;32831.09;5067282;28;20119;-72
2023/12/26 08:14:49;;;;;;;11.82;1.80;;;;;;;-146.27;75.38;32878.72;5076660;28;20415;-72
2023/12/26 08:17:15;;;;;;;10.07;2.28;;;;;;;-146.27;74.96;32900.53;5059446;28;20138;-72
2023/12/26 08:19:40;;;;;;;12.63;1.58;;;;;;;-146.27;74.56;32839.03;5067635;28;20065;-71
2023/12/26 08:22:05;;;;;;;12.10;2.72;;;;;;;-146.27;74.79;32888.63;5067775;28;20380;-73
2023/12/26 08:24:31;;;;;;;13.45;1.70;;;;;;;-146.27;74.23;32769.59;5063639;28;20028;-72
2023/12/26 08:26:58;;;;;;;14.77;2.75;;;;;;;-146.27;75.16;32902.50;5067046;28;21110;-72
2023/12/26 08:29:23;;;;;;;15.27;1.55;;;;;;;-146.27;74.74;32846.97;5067924;28;20075;-73
2023/12/26 08:31:48;;;;;;;11.50;1.90;;;;;;;-146.27;74.70;32858.88;5070841;28;20598;-72
2023/12/26 08:34:14;;;;;;;12.60;2.17;;;;;;;-146.27;74.55;32811.25;5070687;28;20043;-72
2023/12/26 08:36:39;;;;;;;14.90;1.73;;;;;;;-146.27;74.11;32805.31;5075656;28;20028;-73
2023/12/26 08:39:05;;;;;;;22.73;2.83;;;;;;;-146.27;74.58;32843.00;5072100;28;20028;-73
2023/12/26 08:41:30;;;;;;;12.48;1.30;;;;;;;-146.27;74.82;32856.88;5058938;28;20024;-72
2023/12/26 08:43:55;;;;;;;15.80;2.17;;;;;;;-146.27;74.41;32815.22;5065424;28;20028;-73
2023/12/26 08:46:23;;;;;;;12.30;1.55;;;;;;;-146.27;74.22;32829.09;5069511;28;20210;-74
2023/12/26 08:48:49;;;;;;;25.00;2.75;;;;;;;-146.27;74.45;32775.53;5070458;28;20035;-72
2023/12/26 08:51:14;;;;;;;19.08;1.90;;;;;;;-146.27;74.49;32803.31;5070230;28;20024;-72
2023/12/26 08:53:40;;;;;;;13.57;2.40;;;;;;;-146.27;74.56;32767.59;5075043;28;20020;-72
2023/12/26 08:56:05;;;;;;;22.30;2.60;;;;;;;-146.27;74.29;32771.56;5070042;28;20044;-71
2023/12/26 08:58:35;;;;;;;11.63;2.10;;;;;;;-146.27;74.95;32823.16;5064001;28;20029;-72
2023/12/26 09:01:00;;;;;;;14.68;1.60;;;;;;;-146.27;75.03;32779.50;5063226;28;20032;-71
2023/12/26 09:03:27;;;;;;;9.65;2.10;;;;;;;-146.27;74.88;32809.28;5068441;28;20023;-72
2023/12/26 09:05:53;;;;;;;15.98;2.15;;;;;;;-146.27;75.58;32922.34;5063722;28;20021;-71
2023/12/26 09:08:18;;;;;;;19.23;2.72;;;;;;;-146.27;75.18;32805.31;5065024;28;20028;-70
2023/12/26 09:10:44;;;;;;;14.77;1.80;;;;;;;-146.27;75.54;32874.75;5066047;28;20048;-72
2023/12/26 09:13:11;;;;;;;10.93;1.67;;;;;;;-146.27;75.34;32864.81;5065936;28;20027;-71
2023/12/26 09:15:36;;;;;;;17.65;2.58;;;;;;;-146.27;74.67;32765.63;5074038;28;20032;-70
2023/12/26 09:18:02;;;;;;;12.60;2.35;;;;;;;-146.27;74.06;32660.47;5072564;28;20048;-71
2023/12/26 09:20:28;;;;;;;17.52;1.85;;;;;;;-146.27;74.05;32755.69;5067499;28;20104;-72
2023/12/26 09:22:53;;;;;;;15.77;2.40;;;;;;;-146.27;73.92;32745.78;5071608;28;20401;-70
2023/12/26 09:25:19;;;;;;;23.70;2.53;;;;;;;-146.27;73.75;32700.16;5069373;28;20059;-72
2023/12/26 09:27:44;;;;;;;9.77;1.58;;;;;;;-146.27;73.74;32785.47;5071014;28;20362;-70
2023/12/26 09:30:10;;;;;;;23.90;2.08;;;;;;;-146.27;73.65;32747.78;5063316;28;20039;-70
2023/12/26 09:32:40;;;;;;;13.13;2.33;;;;;;;-146.27;73.21;32761.66;5058528;28;20071;-71
2023/12/26 09:35:05;;;;;;;12.88;2.03;;;;;;;-146.27;72.68;32670.41;5068380;28;20476;-72
2023/12/26 09:37:38;;;;;;;9.38;1.90;;;;;;;-146.27;72.27;32680.31;5064835;28;20086;-72
2023/12/26 09:40:05;;;;;;;13.15;1.95;;;;;;;-146.27;72.19;32658.50;5063510;28;20021;-70
2023/12/26 09:42:30;;;;;;;11.65;1.05;;;;;;;-146.27;71.40;32577.16;5066889;28;20039;-70
2023/12/26 09:44:57;;;;;;;12.93;1.80;;;;;;;-146.27;71.33;32595.03;5061358;28;20024;-72
2023/12/26 09:47:25;;;;;;;15.45;2.45;;;;;;;-146.27;70.72;32446.25;5069198;28;20039;-71
2023/12/26 09:49:51;;;;;;;14.23;1.85;;;;;;;-146.27;69.96;32412.50;5063470;28;20043;-75
2023/12/26 09:52:17;;;;;;;12.43;2.03;;;;;;;-146.27;70.56;32489.88;5066963;28;20094;-70
2023/12/26 09:55:03;;;;;;;16.15;2.17;;;;;;;-146.27;70.42;32497.81;5066371;28;20068;-73
2023/12/26 09:57:29;;;;;;;14.43;2.55;;;;;;;-146.27;70.70;32519.63;5064827;28;20033;-71
2023/12/26 09:59:56;;;;;;;15.30;1.73;;;;;;;-146.27;69.43;32394.66;5065402;28;20108;-69
2023/12/26 10:02:21;;;;;;;23.42;2.22;;;;;;;-146.27;69.54;32428.38;5063131;28;20155;-70
2023/12/26 10:04:50;;;;;;;12.85;1.55;;;;;;;-146.27;69.35;32434.34;5066521;28;20108;-70
2023/12/26 10:07:18;;;;;;;22.05;2.10;;;;;;;-146.27;69.25;32509.72;5069598;28;20017;-71
2023/12/26 10:09:44;;;;;;;15.52;1.73;;;;;;;-146.27;68.07;32283.59;5068747;28;20029;-71
2023/12/26 10:12:10;;;;;;;12.75;1.73;;;;;;;-146.27;67.67;32452.19;5061220;28;20048;-70
2023/12/26 10:14:35;;;;;;;13.00;1.80;;;;;;;-146.27;67.06;32182.41;5063849;28;20071;-69
2023/12/26 10:17:01;;;;;;;11.05;1.95;;;;;;;-146.27;66.16;32327.22;5069162;28;20016;-71
2023/12/26 10:19:26;;;;;;;11.63;1.65;;;;;;;-146.27;65.53;32196.31;5064249;28;20035;-73
2023/12/26 10:21:53;;;;;;;11.10;1.75;;;;;;;-146.27;64.69;32132.84;5059819;28;20581;-70
2023/12/26 10:24:19;;;;;;;14.75;2.53;;;;;;;-146.27;64.02;32156.63;5060855;28;20028;-71
2023/12/26 10:26:45;;;;;;;9.73;1.65;;;;;;;-146.27;63.76;32168.53;5065747;28;20447;-70
2023/12/26 10:29:14;;;;;;;17.02;1.83;;;;;;;-146.27;63.25;32043.56;5051774;28;20024;-72
2023/12/26 10:31:43;;;;;;;8.90;1.42;;;;;;;-146.27;63.64;32136.78;5073832;28;20050;-71
2023/12/26 10:34:19;;;;;;;11.90;1.92;;;;;;;-146.27;65.04;32202.25;5064614;28;20029;-71
2023/12/26 10:36:45;;;;;;;17.77;2.17;;;;;;;-146.27;65.46;32349.03;5069030;28;20028;-73
2023/12/26 10:39:12;;;;;;;19.05;1.75;;;;;;;-146.27;66.00;32380.78;5060160;28;20050;-71
2023/12/26 10:41:43;;;;;;;19.52;1.80;;;;;;;-146.27;67.05;32410.53;5070517;28;20032;-71
2023/12/26 10:44:09;;;;;;;10.10;1.40;;;;;;;-146.27;67.89;32497.81;5062252;28;20044;-72
2023/12/26 10:46:35;;;;;;;14.10;1.63;;;;;;;-146.27;68.17;32466.06;5062397;28;20029;-71
2023/12/26 10:49:06;;;;;;;16.52;2.03;;;;;;;-146.27;69.11;32537.50;5066754;28;20365;-72
2023/12/26 10:51:43;;;;;;;12.50;2.50;;;;;;;-146.27;69.00;32569.22;5064729;28;20020;-70
2023/12/26 10:54:17;;;;;;;11.43;2.38;;;;;;;-146.27;69.42;32557.31;5064146;28;20081;-71
2023/12/26 10:56:44;;;;;;;17.92;2.30;;;;;;;-146.27;70.17;32569.22;5067351;28;20036;-71
2023/12/26 10:59:10;;;;;;;16.27;3.00;;;;;;;-146.27;70.35;32602.94;5078521;28;20032;-71
2023/12/26 13:53:45;;;;;;;8.48;1.40;;;;;;;-146.27;68.22;32658.50;5067325;28;20108;-72
2023/12/26 13:56:48;;;;;;;9.05;1.70;;;;;;;-146.27;68.55;32716.03;5068275;28;20401;-72
2023/12/26 13:59:51;;;;;;;14.75;2.40;;;;;;;-146.27;69.22;32678.34;5069447;28;20103;-73